createdAt,value
2022-12-27T00:04:58.440Z,12.30
2022-12-27T00:18:58.496Z,12.10
2022-12-27T00:32:58.505Z,12.50
2022-12-27T00:46:58.472Z,11.20
2022-12-27T01:00:58.521Z,10.80
2022-12-27T01:14:58.496Z,10.30
2022-12-27T01:28:58.490Z,9.90
2022-12-27T01:42:58.515Z,9.90
2022-12-27T01:56:58.495Z,9.40
2022-12-27T02:10:58.540Z,8.75
2022-12-27T02:24:58.526Z,8.45
2022-12-27T02:38:58.585Z,8.10
2022-12-27T02:52:58.690Z,7.95
2022-12-27T03:06:58.789Z,7.85
2022-12-27T03:20:58.861Z,7.95
2022-12-27T03:34:58.850Z,7.40
2022-12-27T03:48:58.935Z,7.60
2022-12-27T04:02:59.053Z,7.55
2022-12-27T04:16:59.054Z,6.70
2022-12-27T04:30:59.068Z,7.10
2022-12-27T04:44:59.060Z,6.80
2022-12-27T04:58:59.115Z,6.30
2022-12-27T05:12:59.144Z,6.50
2022-12-27T05:26:59.087Z,6.00
2022-12-27T05:40:59.132Z,6.00
2022-12-27T05:54:59.154Z,5.70
2022-12-27T06:08:59.127Z,5.60
2022-12-27T06:22:59.143Z,5.40
2022-12-27T06:36:59.159Z,4.80
2022-12-27T06:51:59.672Z,4.50
2022-12-27T07:06:59.217Z,5.00
2022-12-27T07:21:59.305Z,4.90
2022-12-27T07:36:59.307Z,4.80
2022-12-27T07:51:59.318Z,5.10
2022-12-27T08:06:59.325Z,4.80
2022-12-27T08:21:59.333Z,4.80
2022-12-27T08:36:59.335Z,4.80
2022-12-27T08:51:59.380Z,4.70
2022-12-27T09:06:59.391Z,4.90
2022-12-27T09:21:59.389Z,4.80
2022-12-27T09:36:59.422Z,4.80
2022-12-27T09:52:59.454Z,5.15
2022-12-27T10:08:59.451Z,4.70
2022-12-27T10:24:59.498Z,4.80
2022-12-27T10:39:59.527Z,4.70
2022-12-27T10:54:59.540Z,4.40
2022-12-27T11:09:59.523Z,4.40
2022-12-27T11:23:59.524Z,4.30
2022-12-27T11:37:59.554Z,4.00
2022-12-27T11:52:59.587Z,6.15
2022-12-27T12:06:59.568Z,7.85
2022-12-27T12:20:59.648Z,8.85
2022-12-27T12:34:59.745Z,8.80
2022-12-27T12:48:59.946Z,8.25
2022-12-27T13:03:00.138Z,8.35
2022-12-27T13:17:00.025Z,8.05
2022-12-27T13:31:00.287Z,7.40
2022-12-27T13:45:00.284Z,6.70
2022-12-27T13:59:00.484Z,6.90
2022-12-27T14:13:00.641Z,6.60
2022-12-27T14:27:00.665Z,6.40
2022-12-27T14:41:00.729Z,6.10
2022-12-27T14:55:00.840Z,5.60
2022-12-27T15:10:00.918Z,5.50
2022-12-27T15:24:01.118Z,5.60
2022-12-27T15:38:01.129Z,5.30
2022-12-27T15:53:01.110Z,5.45
2022-12-27T16:07:04.257Z,5.80
2022-12-27T16:21:01.252Z,6.05
2022-12-27T16:34:01.142Z,5.80
2022-12-27T16:47:01.230Z,6.00
2022-12-27T17:00:01.188Z,5.20
2022-12-27T17:13:01.209Z,5.50
2022-12-27T17:26:01.185Z,5.10
2022-12-27T17:39:01.226Z,4.70
2022-12-27T17:52:01.201Z,4.60
2022-12-27T18:05:01.242Z,5.40
2022-12-27T18:18:01.323Z,5.10
2022-12-27T18:31:01.267Z,5.50
2022-12-27T18:44:01.313Z,5.90
2022-12-27T18:57:01.312Z,6.05
2022-12-27T19:10:01.380Z,6.40
2022-12-27T19:23:01.304Z,6.40
2022-12-27T19:36:01.295Z,6.40
2022-12-27T19:49:40.675Z,6.10
2022-12-27T20:02:01.566Z,6.50
2022-12-27T20:15:01.405Z,7.30
2022-12-27T20:28:01.543Z,13.60
2022-12-27T20:41:01.476Z,15.80
2022-12-27T20:54:01.476Z,16.80
2022-12-27T21:07:01.512Z,19.00
2022-12-27T21:20:01.617Z,18.70
2022-12-27T21:33:01.673Z,18.30
2022-12-27T21:46:01.645Z,16.90
2022-12-27T21:59:01.637Z,19.00
2022-12-27T22:12:01.840Z,18.65
2022-12-27T22:25:01.958Z,17.70
2022-12-27T22:39:02.427Z,16.95
2022-12-27T22:52:02.355Z,16.20
2022-12-27T23:05:02.424Z,15.50
2022-12-27T23:18:02.477Z,14.80
2022-12-27T23:31:02.494Z,14.50
2022-12-27T23:44:02.458Z,12.60
2022-12-27T23:57:20.782Z,11.80
